Time;durP1;ratioP1;P1;durP2;ratioP2;P2;SDS_P1;SDS_P2;PMS_P1;PMS_P2;Temp;Humidity;BMP_temperature;BMP_pressure;BME280_temperature;BME280_humidity;BME280_pressure;Samples;Min_cycle;Max_cycle;Signal;HPM_P1;HPM_P2
2024/02/20 00:01:22;;;;;;;10.98;6.35;;;8.30;99.90;;;-148.53;100.00;63986.66;5032001;28;20402;-76
2024/02/20 00:03:47;;;;;;;8.95;5.43;;;8.20;99.90;;;-148.53;100.00;63986.66;5016845;28;20460;-76
2024/02/20 00:06:13;;;;;;;9.25;5.00;;;8.20;99.90;;;-148.53;100.00;63986.66;5014073;28;20073;-76
2024/02/20 00:08:39;;;;;;;7.25;4.38;;;8.20;99.90;;;-148.53;100.00;63986.66;5041127;28;20037;-77
2024/02/20 00:11:05;;;;;;;7.05;4.63;;;8.20;99.90;;;-148.53;100.00;63986.66;5022564;28;20371;-76
2024/02/20 00:13:31;;;;;;;9.15;4.55;;;8.20;99.90;;;-148.53;100.00;63986.66;5018959;28;20041;-76
2024/02/20 00:15:57;;;;;;;7.82;4.47;;;8.20;99.90;;;-148.53;100.00;63986.66;5012890;28;20029;-76
2024/02/20 00:18:22;;;;;;;9.25;4.35;;;8.20;99.90;;;-148.53;100.00;63986.66;5010248;28;20046;-77
2024/02/20 00:20:48;;;;;;;7.18;4.28;;;8.20;99.90;;;-148.53;100.00;63986.66;5010762;28;20060;-76
2024/02/20 00:23:14;;;;;;;8.82;3.88;;;8.10;99.90;;;-148.53;100.00;63986.66;5012012;28;20489;-77
2024/02/20 00:25:42;;;;;;;8.43;4.13;;;8.10;99.90;;;-148.53;100.00;63986.66;5016222;28;20489;-77
2024/02/20 00:28:08;;;;;;;;;;;8.10;99.90;;;-148.53;100.00;63986.66;5021542;28;20537;-77
2024/02/20 00:30:34;;;;;;;6.70;3.20;;;8.10;99.90;;;-148.53;100.00;63986.66;5022181;28;19948;-77
2024/02/20 00:32:59;;;;;;;8.02;3.90;;;8.10;99.90;;;-148.53;100.00;63986.66;5037325;28;20053;-76
2024/02/20 00:35:25;;;;;;;9.88;4.10;;;8.10;99.90;;;-148.53;100.00;63986.66;5011202;28;20477;-76
2024/02/20 00:37:51;;;;;;;5.93;3.53;;;8.10;99.90;;;-148.53;100.00;63986.66;5022353;28;20036;-76
2024/02/20 00:40:18;;;;;;;7.22;3.38;;;8.00;99.90;;;-148.53;100.00;63986.66;5025093;28;20041;-77
2024/02/20 00:42:45;;;;;;;7.57;4.53;;;8.00;99.90;;;-148.53;100.00;63986.66;5022851;28;20069;-77
2024/02/20 00:45:12;;;;;;;8.60;4.10;;;8.00;99.90;;;-148.53;100.00;63986.66;5018423;28;20033;-77
2024/02/20 00:47:37;;;;;;;10.10;4.13;;;8.00;99.90;;;-148.53;100.00;63986.66;5027553;28;20041;-77
2024/02/20 00:50:04;;;;;;;12.05;4.25;;;8.00;99.90;;;-148.53;100.00;63986.66;5041126;28;20115;-77
2024/02/20 00:52:29;;;;;;;10.55;4.03;;;8.00;99.90;;;-148.53;100.00;63986.66;5017064;28;20481;-77
2024/02/20 00:54:55;;;;;;;9.57;3.17;;;8.00;99.90;;;-148.53;100.00;63986.66;5016828;28;20088;-77
2024/02/20 00:57:21;;;;;;;10.82;4.13;;;8.00;99.90;;;-148.53;100.00;63986.66;5016456;28;20041;-76
2024/02/20 00:59:47;;;;;;;8.70;3.83;;;7.90;99.90;;;-148.53;100.00;63986.66;5029235;28;20500;-77
2024/02/20 01:02:13;;;;;;;8.55;3.58;;;8.00;99.90;;;-148.53;100.00;63986.66;5022456;28;20104;-76
2024/02/20 01:04:42;;;;;;;6.85;3.20;;;7.90;99.90;;;-148.53;100.00;63986.66;5016435;28;20061;-76
2024/02/20 01:07:08;;;;;;;8.43;3.60;;;7.90;99.90;;;-148.53;100.00;63986.66;5032266;28;20045;-76
2024/02/20 01:09:34;;;;;;;9.65;3.53;;;7.90;99.90;;;-148.53;100.00;63986.66;5012478;28;20034;-76
2024/02/20 01:12:00;;;;;;;10.43;3.45;;;7.90;99.90;;;-148.53;100.00;63986.66;5025145;28;20030;-77
2024/02/20 01:14:26;;;;;;;6.68;3.05;;;7.80;99.90;;;-148.53;100.00;63986.66;5025259;28;20092;-77
2024/02/20 01:16:51;;;;;;;7.00;3.35;;;7.80;99.90;;;-148.53;100.00;63986.66;5012140;28;20385;-77
2024/02/20 01:19:17;;;;;;;9.82;3.40;;;7.80;99.90;;;-148.53;100.00;63986.66;5031411;28;20059;-77
2024/02/20 01:21:43;;;;;;;11.52;4.20;;;7.80;99.90;;;-148.53;100.00;63986.66;5033791;28;20045;-77
2024/02/20 01:24:08;;;;;;;9.98;4.28;;;7.80;99.90;;;-148.53;100.00;63986.66;5031332;28;20037;-76
2024/02/20 01:26:34;;;;;;;11.00;4.28;;;7.80;99.90;;;-148.53;100.00;63986.66;5020675;28;20057;-77
2024/02/20 01:29:00;;;;;;;11.57;4.18;;;7.80;99.90;;;-148.53;100.00;63986.66;5024517;28;20124;-77
2024/02/20 01:31:26;;;;;;;10.55;3.90;;;7.80;99.90;;;-148.53;100.00;63986.66;5023489;28;20041;-77
2024/02/20 01:33:53;;;;;;;11.23;4.45;;;7.80;99.90;;;-148.53;100.00;63986.66;5032162;28;20037;-77
2024/02/20 01:36:19;;;;;;;16.63;5.05;;;7.80;99.90;;;-148.53;100.00;63986.66;5010995;28;20045;-77
2024/02/20 01:38:46;;;;;;;13.68;4.85;;;7.80;99.90;;;-148.53;100.00;63986.66;5013979;28;20049;-76
2024/02/20 01:41:12;;;;;;;13.88;4.60;;;7.80;99.90;;;-148.53;100.00;63986.66;4994932;28;20135;-76
2024/02/20 01:43:38;;;;;;;13.38;4.50;;;7.70;99.90;;;-148.53;100.00;63986.66;5016177;28;20069;-76
2024/02/20 01:46:08;;;;;;;11.02;3.67;;;7.80;99.90;;;-148.53;100.00;63986.66;5019029;28;20030;-77
2024/02/20 01:48:34;;;;;;;10.07;4.03;;;7.80;99.90;;;-148.53;100.00;63986.66;5021310;28;20042;-77
2024/02/20 01:51:01;;;;;;;12.43;3.95;;;7.80;99.90;;;-148.53;100.00;63986.66;5016780;28;20385;-76
2024/02/20 01:53:30;;;;;;;10.13;3.55;;;7.80;99.90;;;-148.53;100.00;63986.66;5016794;28;20063;-76
2024/02/20 01:55:57;;;;;;;10.63;3.53;;;7.80;99.90;;;-148.53;100.00;63986.66;5013061;28;20034;-76
2024/02/20 01:58:24;;;;;;;9.40;3.38;;;7.70;99.90;;;-148.53;100.00;63986.66;5011647;28;20030;-76
2024/02/20 02:00:50;;;;;;;10.65;3.22;;;7.70;99.90;;;-148.53;100.00;63986.66;5010418;28;20037;-77
2024/02/20 02:03:16;;;;;;;9.90;3.35;;;7.70;99.90;;;-148.53;100.00;63986.66;5017134;28;20038;-77
2024/02/20 02:05:42;;;;;;;10.27;2.70;;;7.70;99.90;;;-148.53;100.00;63986.66;5029905;28;20076;-76
2024/02/20 02:08:14;;;;;;;10.38;3.05;;;7.70;99.90;;;-148.53;100.00;63986.66;5026531;28;20037;-75
2024/02/20 02:10:41;;;;;;;11.57;3.28;;;7.70;99.90;;;-148.53;100.00;63986.66;5023785;28;20044;-76
2024/02/20 02:13:07;;;;;;;16.00;3.95;;;7.60;99.90;;;-148.53;100.00;63986.66;5020523;28;20038;-76
2024/02/20 02:15:32;;;;;;;9.50;3.30;;;7.60;99.90;;;-148.53;100.00;63986.66;5016156;28;20048;-77
2024/02/20 02:17:58;;;;;;;10.88;3.53;;;7.60;99.90;;;-148.53;100.00;63986.66;5020129;28;20057;-76
2024/02/20 02:20:24;;;;;;;10.38;3.33;;;7.60;99.90;;;-148.53;100.00;63986.66;5010128;28;20076;-77
2024/02/20 02:22:50;;;;;;;13.38;3.78;;;7.60;99.90;;;-148.53;100.00;63986.66;5015045;28;20037;-76
2024/02/20 02:25:16;;;;;;;11.02;3.35;;;7.70;99.90;;;-148.53;100.00;63986.66;5021676;28;20092;-77
2024/02/20 02:27:42;;;;;;;8.85;3.15;;;7.70;99.90;;;-148.53;100.00;63986.66;5024648;28;20104;-77
2024/02/20 02:30:09;;;;;;;13.15;5.15;;;7.70;99.90;;;-148.53;100.00;63986.66;5033682;28;20126;-76
2024/02/20 02:32:35;;;;;;;12.68;3.92;;;7.70;99.90;;;-148.53;100.00;63986.66;5028421;28;20038;-77
2024/02/20 02:35:04;;;;;;;12.75;4.45;;;7.80;99.90;;;-148.53;100.00;63986.66;5015292;28;20107;-76
2024/02/20 02:37:30;;;;;;;14.18;3.50;;;7.70;99.90;;;-148.53;100.00;63986.66;5019028;28;20037;-77
2024/02/20 02:39:56;;;;;;;16.17;4.05;;;7.80;99.90;;;-148.53;100.00;63986.66;5031658;28;20504;-77
2024/02/20 02:42:21;;;;;;;11.70;3.63;;;7.80;99.90;;;-148.53;100.00;63986.66;5022307;28;20034;-77
2024/02/20 02:44:47;;;;;;;12.73;3.28;;;7.80;99.90;;;-148.53;100.00;63986.66;5035377;28;20038;-77
2024/02/20 02:47:13;;;;;;;15.07;3.58;;;7.80;99.90;;;-148.53;100.00;63986.66;5019448;28;20386;-76
2024/02/20 02:49:38;;;;;;;10.70;3.05;;;7.80;99.90;;;-148.53;100.00;63986.66;5017912;28;20033;-77
2024/02/20 02:52:05;;;;;;;12.73;3.25;;;7.80;99.90;;;-148.53;100.00;63986.66;5014797;28;20030;-77
2024/02/20 02:54:31;;;;;;;13.60;3.85;;;7.70;99.90;;;-148.53;100.00;63986.66;5020688;28;20073;-77
2024/02/20 02:56:57;;;;;;;13.40;3.60;;;7.70;99.90;;;-148.53;100.00;63986.66;5024899;28;20036;-77
2024/02/20 02:59:23;;;;;;;14.95;3.53;;;7.70;99.90;;;-148.53;100.00;63986.66;5026151;28;20048;-77
2024/02/20 03:01:49;;;;;;;14.02;3.58;;;7.70;99.90;;;-148.53;100.00;63986.66;5024441;28;20042;-76
2024/02/20 03:04:15;;;;;;;15.35;3.92;;;7.70;99.90;;;-148.53;100.00;63986.66;5013570;28;20050;-76
2024/02/20 03:06:41;;;;;;;12.85;3.70;;;7.60;99.90;;;-148.53;100.00;63986.66;5026417;28;20665;-77
2024/02/20 03:09:12;;;;;;;16.52;3.95;;;7.50;99.90;;;-148.53;100.00;63986.66;5045181;28;20045;-77
2024/02/20 03:11:42;;;;;;;13.65;4.35;;;7.50;99.90;;;-148.53;100.00;63986.66;5026104;28;20034;-76
2024/02/20 03:14:10;;;;;;;15.60;4.40;;;7.50;99.90;;;-148.53;100.00;63986.66;5036305;28;20039;-77
2024/02/20 03:16:36;;;;;;;22.92;5.00;;;7.40;99.90;;;-148.53;100.00;63986.66;5042123;28;20037;-76
2024/02/20 03:19:03;;;;;;;22.02;4.78;;;7.40;99.90;;;-148.53;100.00;63986.66;5024191;28;20041;-76
2024/02/20 03:21:30;;;;;;;18.65;4.78;;;7.40;99.90;;;-148.53;100.00;63986.66;5028346;28;20052;-77
2024/02/20 03:23:56;;;;;;;16.90;4.68;;;7.40;99.90;;;-148.53;100.00;63986.66;5019342;28;20351;-76
2024/02/20 03:26:21;;;;;;;22.42;5.00;;;7.30;99.90;;;-148.53;100.00;63986.66;5015100;28;20092;-76
2024/02/20 03:28:47;;;;;;;16.58;4.80;;;7.40;99.90;;;-148.53;100.00;63986.66;5015681;28;20088;-77
2024/02/20 03:31:13;;;;;;;23.63;5.85;;;7.40;99.90;;;-148.53;100.00;63986.66;5037980;28;20095;-77
2024/02/20 03:33:39;;;;;;;24.85;6.15;;;7.40;99.90;;;-148.53;100.00;63986.66;5027140;28;20033;-76
2024/02/20 03:36:06;;;;;;;22.88;5.63;;;7.40;99.90;;;-148.53;100.00;63986.66;5019911;28;20033;-77
2024/02/20 03:38:32;;;;;;;25.13;6.10;;;7.50;99.90;;;-148.53;100.00;63986.66;5014043;28;20057;-76
2024/02/20 03:40:58;;;;;;;25.88;5.47;;;7.50;99.90;;;-148.53;100.00;63986.66;5023955;28;20049;-75
2024/02/20 03:43:23;;;;;;;23.90;5.90;;;7.50;99.90;;;-148.53;100.00;63986.66;5021481;28;20044;-76
2024/02/20 03:45:49;;;;;;;20.83;5.53;;;7.50;99.90;;;-148.53;100.00;63986.66;5033060;28;20053;-77
2024/02/20 03:48:15;;;;;;;26.73;5.85;;;7.50;99.90;;;-148.53;100.00;63986.66;5028790;28;20393;-76
2024/02/20 03:50:41;;;;;;;21.02;4.70;;;7.50;99.90;;;-148.53;100.00;63986.66;5027190;28;20029;-77
2024/02/20 03:53:06;;;;;;;24.83;5.85;;;7.50;99.90;;;-148.53;100.00;63986.66;5013689;28;20140;-76
2024/02/20 03:55:32;;;;;;;20.83;5.15;;;7.60;99.90;;;-148.53;100.00;63986.66;5013815;28;20050;-76
2024/02/20 03:57:59;;;;;;;28.20;6.10;;;7.50;99.90;;;-148.53;100.00;63986.66;5034079;28;20038;-76
2024/02/20 04:00:25;;;;;;;38.07;6.47;;;7.60;99.90;;;-148.53;100.00;63986.66;5024471;28;20049;-76
2024/02/20 04:02:53;;;;;;;21.75;5.00;;;7.60;99.90;;;-148.53;100.00;63986.66;5021793;28;20913;-77
2024/02/20 04:05:19;;;;;;;25.42;5.38;;;7.60;99.90;;;-148.53;100.00;63986.66;5023034;28;20117;-76
2024/02/20 04:07:46;;;;;;;20.80;4.75;;;7.60;99.90;;;-148.53;100.00;63986.66;5013555;28;20179;-77
2024/02/20 04:10:14;;;;;;;27.08;4.47;;;7.60;99.90;;;-148.53;100.00;63986.66;5012402;28;20092;-78
2024/02/20 04:12:44;;;;;;;23.13;4.18;;;7.50;99.90;;;-148.53;100.00;63986.66;5020004;28;20029;-77
2024/02/20 04:15:13;;;;;;;28.02;5.47;;;7.50;99.90;;;-148.53;100.00;63986.66;5019526;28;20029;-78
2024/02/20 04:17:39;;;;;;;23.15;4.47;;;7.50;99.90;;;-148.53;100.00;63986.66;5033593;28;20033;-77
2024/02/20 04:20:11;;;;;;;23.15;3.97;;;7.50;99.90;;;-148.53;100.00;63986.66;5019923;28;20033;-76
2024/02/20 04:22:38;;;;;;;19.52;3.78;;;7.50;99.90;;;-148.53;100.00;63986.66;5020222;28;20072;-77
2024/02/20 04:25:05;;;;;;;24.00;4.30;;;7.50;99.90;;;-148.53;100.00;63986.66;5014287;28;20342;-77
2024/02/20 04:27:31;;;;;;;;;;;7.50;99.90;;;-148.53;100.00;63986.66;5021371;28;20085;-76
2024/02/20 04:29:57;;;;;;;30.33;4.63;;;7.50;99.90;;;-148.53;100.00;63986.66;5014659;28;19928;-76
2024/02/20 04:32:23;;;;;;;26.25;4.15;;;7.50;99.90;;;-148.53;100.00;63986.66;5023219;28;20073;-76
2024/02/20 04:34:49;;;;;;;19.50;3.00;;;7.50;99.90;;;-148.53;100.00;63986.66;5034284;28;20042;-77
2024/02/20 04:37:16;;;;;;;24.70;3.80;;;7.50;99.90;;;-148.53;100.00;63986.66;5033471;28;20045;-77
2024/02/20 04:39:44;;;;;;;23.77;4.43;;;7.50;99.90;;;-148.53;100.00;63986.66;5012636;28;20045;-77
2024/02/20 04:42:11;;;;;;;23.23;3.63;;;7.40;99.90;;;-148.53;100.00;63986.66;5012644;28;20037;-77
2024/02/20 04:44:37;;;;;;;18.75;3.25;;;7.50;99.90;;;-148.53;100.00;63986.66;5032330;28;20412;-77
2024/02/20 04:47:07;;;;;;;20.00;3.58;;;7.40;99.90;;;-148.53;100.00;63986.66;5018376;28;20112;-77
2024/02/20 04:49:33;;;;;;;24.17;4.03;;;7.40;99.90;;;-148.53;100.00;63986.66;5034964;28;20116;-77
2024/02/20 04:51:59;;;;;;;17.05;3.45;;;7.50;99.90;;;-148.53;100.00;63986.66;5022740;28;20049;-77
2024/02/20 04:54:26;;;;;;;22.67;4.07;;;7.50;99.90;;;-148.53;100.00;63986.66;5012301;28;20034;-77
2024/02/20 04:56:52;;;;;;;24.33;3.50;;;7.50;99.90;;;-148.53;100.00;63986.66;5012443;28;20042;-77
2024/02/20 04:59:19;;;;;;;25.27;3.88;;;7.60;99.90;;;-148.53;100.00;63986.66;5026561;28;20044;-78
2024/02/20 05:01:46;;;;;;;21.25;3.60;;;7.60;99.90;;;-148.53;100.00;63986.66;5038192;28;20038;-77
2024/02/20 05:04:12;;;;;;;24.60;3.35;;;7.60;99.90;;;-148.53;100.00;63986.66;5030405;28;20073;-77
2024/02/20 05:06:38;;;;;;;21.40;3.15;;;7.50;99.90;;;-148.53;100.00;63986.66;5015659;28;20049;-77
2024/02/20 05:09:05;;;;;;;25.65;3.97;;;7.50;99.90;;;-148.53;100.00;63986.66;5017839;28;20030;-78
2024/02/20 05:11:31;;;;;;;21.08;3.47;;;7.50;99.90;;;-148.53;100.00;63986.66;5012740;28;20100;-77
2024/02/20 05:13:57;;;;;;;29.75;3.50;;;7.50;99.90;;;-148.53;100.00;63986.66;5015067;28;20037;-76
2024/02/20 05:16:22;;;;;;;24.58;3.75;;;7.40;99.90;;;-148.53;100.00;63986.66;5015773;28;20038;-76
2024/02/20 05:18:48;;;;;;;28.42;3.80;;;7.40;99.90;;;-148.53;100.00;63986.66;5015983;28;20461;-77
2024/02/20 05:21:14;;;;;;;22.70;3.35;;;7.30;99.90;;;-148.53;100.00;63986.66;5018032;28;20115;-78
2024/02/20 05:23:40;;;;;;;24.63;4.07;;;7.30;99.90;;;-148.53;100.00;63986.66;5010126;28;20038;-76
2024/02/20 05:26:06;;;;;;;23.25;3.33;;;7.30;99.90;;;-148.53;100.00;63986.66;5021923;28;20033;-77
2024/02/20 05:28:32;;;;;;;32.35;4.10;;;7.20;99.90;;;-148.53;100.00;63986.66;5017384;28;20037;-77
2024/02/20 05:30:57;;;;;;;27.67;4.40;;;7.30;99.90;;;-148.53;100.00;63986.66;5026015;28;20119;-77
2024/02/20 05:33:23;;;;;;;32.30;4.78;;;7.20;99.90;;;-148.53;100.00;63986.66;5018505;28;20042;-77
2024/02/20 05:35:49;;;;;;;26.20;4.55;;;7.20;99.90;;;-148.53;100.00;63986.66;5022358;28;20042;-77
2024/02/20 05:38:15;;;;;;;28.20;4.45;;;7.20;99.90;;;-148.53;100.00;63986.66;5025253;28;20433;-77
2024/02/20 05:40:40;;;;;;;28.10;4.72;;;7.20;99.90;;;-148.53;100.00;63986.66;5017120;28;20048;-76
2024/02/20 05:43:06;;;;;;;34.53;5.70;;;7.20;99.90;;;-148.53;100.00;63986.66;5020746;28;20120;-76
2024/02/20 05:45:33;;;;;;;28.55;4.22;;;7.30;99.90;;;-148.53;100.00;63986.66;5011865;28;20429;-77
2024/02/20 05:48:00;;;;;;;34.58;3.92;;;7.20;99.90;;;-148.53;100.00;63986.66;5017602;28;20396;-77
2024/02/20 05:50:28;;;;;;;32.92;6.15;;;7.20;99.90;;;-148.53;100.00;63986.66;5036609;28;20046;-77
2024/02/20 05:52:55;;;;;;;24.55;4.07;;;7.30;99.90;;;-148.53;100.00;63986.66;5022449;28;20038;-76
2024/02/20 05:55:21;;;;;;;27.20;4.35;;;7.30;99.90;;;-148.53;100.00;63986.66;5015667;28;20030;-76
2024/02/20 05:57:46;;;;;;;27.58;5.45;;;7.30;99.90;;;-148.53;100.00;63986.66;5022866;28;20040;-76
2024/02/20 06:00:13;;;;;;;34.58;5.63;;;7.30;99.90;;;-148.53;100.00;63986.66;5016135;28;20045;-76
2024/02/20 06:02:39;;;;;;;31.00;5.07;;;7.30;99.90;;;-148.53;100.00;63986.66;5031397;28;20030;-77
2024/02/20 06:05:07;;;;;;;34.40;4.85;;;7.30;99.90;;;-148.53;100.00;63986.66;5029514;28;20067;-77
2024/02/20 06:07:33;;;;;;;26.65;4.93;;;7.30;99.90;;;-148.53;100.00;63986.66;5026176;28;20037;-77
2024/02/20 06:09:59;;;;;;;24.05;4.70;;;7.30;99.90;;;-148.53;100.00;63986.66;5019465;28;20485;-77
2024/02/20 06:12:26;;;;;;;33.85;5.05;;;7.30;99.90;;;-148.53;100.00;63986.66;5022252;28;20034;-77
2024/02/20 06:14:52;;;;;;;36.90;4.53;;;7.30;99.90;;;-148.53;100.00;63986.66;5016047;28;20041;-77
2024/02/20 06:17:17;;;;;;;28.63;4.07;;;7.30;99.90;;;-148.53;100.00;63986.66;5020089;28;20047;-77
2024/02/20 06:19:43;;;;;;;37.10;5.10;;;7.30;99.90;;;-148.53;100.00;63986.66;5028827;28;20034;-77
2024/02/20 06:22:09;;;;;;;29.77;5.20;;;7.30;99.90;;;-148.53;100.00;63986.66;5022205;28;20403;-77
2024/02/20 06:24:34;;;;;;;26.52;4.72;;;7.20;99.90;;;-148.53;100.00;63986.66;5020455;28;20087;-76
2024/02/20 06:27:02;;;;;;;40.85;4.85;;;7.20;99.90;;;-148.53;100.00;63986.66;5022652;28;20060;-78
2024/02/20 06:29:28;;;;;;;34.55;4.50;;;7.20;99.90;;;-148.53;100.00;63986.66;5025354;28;20038;-81
2024/02/20 06:31:54;;;;;;;32.47;4.93;;;7.20;99.90;;;-148.53;100.00;63986.66;5038895;28;20184;-78
2024/02/20 06:34:20;;;;;;;30.17;4.75;;;7.20;99.90;;;-148.53;100.00;63986.66;5021088;28;20401;-77
2024/02/20 06:36:46;;;;;;;37.40;4.93;;;7.20;99.90;;;-148.53;100.00;63986.66;5015473;28;20049;-78
2024/02/20 06:39:11;;;;;;;28.67;4.10;;;7.10;99.90;;;-148.53;100.00;63986.66;5019084;28;20030;-78
2024/02/20 06:41:37;;;;;;;38.70;5.70;;;7.10;99.90;;;-148.53;100.00;63986.66;5022114;28;20037;-78
2024/02/20 06:44:03;;;;;;;33.20;5.15;;;7.10;99.90;;;-148.53;100.00;63986.66;5018302;28;20473;-78
2024/02/20 06:46:29;;;;;;;25.73;3.95;;;7.10;99.90;;;-148.53;100.00;63986.66;5018753;28;20046;-78
2024/02/20 06:48:54;;;;;;;30.60;4.57;;;7.10;99.90;;;-148.53;100.00;63986.66;5029557;28;20025;-78
2024/02/20 06:51:24;;;;;;;36.83;4.45;;;7.00;99.90;;;-148.53;100.00;63986.66;5030637;28;20105;-78
2024/02/20 06:53:50;;;;;;;37.63;5.15;;;7.00;99.90;;;-148.53;100.00;63986.66;5030843;28;20033;-77
2024/02/20 06:56:16;;;;;;;29.80;4.20;;;7.00;99.90;;;-148.53;100.00;63986.66;5025406;28;20030;-78
2024/02/20 06:58:41;;;;;;;35.22;4.70;;;7.00;99.90;;;-148.53;100.00;63986.66;5041724;28;20034;-78
2024/02/20 07:01:08;;;;;;;33.38;5.10;;;7.00;99.90;;;-148.53;100.00;63986.66;5029720;28;20044;-78
2024/02/20 07:03:33;;;;;;;30.48;4.18;;;6.90;99.90;;;-148.53;100.00;63986.66;5033895;28;20049;-78
2024/02/20 07:05:59;;;;;;;36.80;5.18;;;7.00;99.90;;;-148.53;100.00;63986.66;5033900;28;20042;-78
2024/02/20 07:08:25;;;;;;;27.27;4.55;;;6.90;99.90;;;-148.53;100.00;63986.66;5031748;28;20037;-78
2024/02/20 07:10:50;;;;;;;33.05;4.28;;;6.90;99.90;;;-148.53;100.00;63986.66;5017560;28;20041;-77
2024/02/20 07:13:18;;;;;;;32.38;5.68;;;6.90;99.90;;;-148.53;100.00;63986.66;5019265;28;20034;-78
2024/02/20 07:15:44;;;;;;;;;;;7.00;99.90;;;-148.53;100.00;63986.66;5018215;28;20047;-78
2024/02/20 07:18:10;;;;;;;37.00;4.55;;;7.00;99.90;;;-148.53;100.00;63986.66;5014845;28;20007;-77
2024/02/20 07:20:36;;;;;;;32.60;4.68;;;7.00;99.90;;;-148.53;100.00;63986.66;5025703;28;20490;-78
2024/02/20 07:23:03;;;;;;;35.10;5.10;;;7.00;99.90;;;-148.53;100.00;63986.66;5032277;28;20121;-78
2024/02/20 07:25:29;;;;;;;31.52;4.13;;;7.00;99.90;;;-148.53;100.00;63986.66;5019974;28;20074;-77
2024/02/20 07:27:54;;;;;;;26.05;4.43;;;7.00;99.90;;;-148.53;100.00;63986.66;5017774;28;20037;-79
2024/02/20 07:30:20;;;;;;;34.40;4.20;;;7.00;99.90;;;-148.53;100.00;63986.66;5016068;28;20092;-78
2024/02/20 07:32:46;;;;;;;27.50;4.60;;;7.00;99.90;;;-148.53;100.00;63986.66;5023952;28;20564;-78
2024/02/20 07:35:13;;;;;;;40.03;6.00;;;7.00;99.90;;;-148.53;100.00;63986.66;5036184;28;20117;-78
2024/02/20 07:37:40;;;;;;;37.20;6.70;;;7.10;99.90;;;-148.53;100.00;63986.66;5038624;28;20056;-79
2024/02/20 07:40:08;;;;;;;28.52;4.75;;;7.10;99.90;;;-148.53;100.00;63986.66;5019508;28;20029;-79
2024/02/20 07:42:36;;;;;;;33.45;5.00;;;7.10;99.90;;;-148.53;100.00;63986.66;5013971;28;20052;-77
2024/02/20 07:45:02;;;;;;;28.02;5.20;;;7.20;99.90;;;-148.53;100.00;63986.66;5022748;28;20134;-77
2024/02/20 07:47:28;;;;;;;34.75;4.75;;;7.20;99.90;;;-148.53;100.00;63986.66;5022422;28;20393;-77
2024/02/20 07:49:53;;;;;;;26.65;4.57;;;7.30;99.90;;;-148.53;100.00;63986.66;5017367;28;20038;-78
2024/02/20 07:52:19;;;;;;;31.80;5.30;;;7.40;99.90;;;-148.53;100.00;63986.66;5021227;28;20092;-78
2024/02/20 07:54:45;;;;;;;33.38;5.03;;;7.40;99.90;;;-148.53;100.00;63986.66;5029734;28;20037;-78
2024/02/20 07:57:11;;;;;;;30.85;5.45;;;7.50;99.90;;;-148.53;100.00;63986.66;5025448;28;20393;-77
2024/02/20 07:59:36;;;;;;;30.20;5.65;;;7.60;99.90;;;-148.53;100.00;63986.66;5025860;28;20075;-78
2024/02/20 08:02:07;;;;;;;33.22;5.00;;;7.60;99.90;;;-148.53;100.00;63986.66;5029529;28;20104;-78
2024/02/20 08:04:33;;;;;;;28.20;6.13;;;7.50;99.90;;;-148.53;100.00;63986.66;5014639;28;20127;-77
2024/02/20 08:06:59;;;;;;;28.52;5.05;;;7.60;99.90;;;-148.53;100.00;63986.66;5019610;28;20073;-79
2024/02/20 08:09:24;;;;;;;29.23;4.70;;;7.60;99.90;;;-148.53;100.00;63986.66;5018364;28;20054;-78
2024/02/20 08:11:51;;;;;;;31.38;5.78;;;7.70;99.90;;;-148.53;100.00;63986.66;5018074;28;20481;-77
2024/02/20 08:14:19;;;;;;;39.10;6.22;;;7.70;99.90;;;-148.53;100.00;63986.66;5019937;28;20048;-78
2024/02/20 08:16:48;;;;;;;32.60;5.85;;;7.70;99.90;;;-148.53;100.00;63986.66;5019086;28;20033;-78
2024/02/20 08:19:15;;;;;;;32.90;5.18;;;7.70;99.90;;;-148.53;100.00;63986.66;5017034;28;20121;-78
2024/02/20 08:21:41;;;;;;;31.58;5.35;;;7.80;99.90;;;-148.53;100.00;63986.66;5018093;28;20103;-78
2024/02/20 08:24:06;;;;;;;30.65;5.18;;;7.80;99.90;;;-148.53;100.00;63986.66;5013806;28;20033;-79
2024/02/20 08:26:33;;;;;;;34.42;6.85;;;7.80;99.90;;;-148.53;100.00;63986.66;5019540;28;20481;-78
2024/02/20 08:28:59;;;;;;;24.38;6.75;;;7.90;99.90;;;-148.53;100.00;63986.66;5017680;28;20099;-79
2024/02/20 08:31:25;;;;;;;35.45;5.65;;;7.90;99.90;;;-148.53;100.00;63986.66;5034397;28;20489;-78
2024/02/20 08:33:51;;;;;;;28.05;6.63;;;8.00;99.90;;;-148.53;100.00;63986.66;5017816;28;20030;-77
2024/02/20 08:36:19;;;;;;;33.72;7.07;;;8.00;99.90;;;-148.53;100.00;63986.66;5025899;28;20037;-78
2024/02/20 08:38:46;;;;;;;39.63;6.22;;;7.90;99.90;;;-148.53;100.00;63986.66;5022878;28;20084;-78
2024/02/20 08:41:12;;;;;;;34.90;5.45;;;7.90;99.90;;;-148.53;100.00;63986.66;5019964;28;20386;-77
2024/02/20 08:43:38;;;;;;;31.20;6.55;;;8.00;99.90;;;-148.53;100.00;63986.66;5022113;28;20038;-77
2024/02/20 08:46:04;;;;;;;31.40;6.85;;;8.00;99.90;;;-148.53;100.00;63986.66;5029111;28;20069;-78
2024/02/20 08:48:30;;;;;;;31.77;6.82;;;8.00;99.90;;;-148.53;100.00;63986.66;5020010;28;20116;-77
2024/02/20 08:50:56;;;;;;;36.25;7.40;;;8.10;99.90;;;-148.53;100.00;63986.66;5034757;28;20041;-77
2024/02/20 08:53:22;;;;;;;36.05;7.07;;;8.10;99.90;;;-148.53;100.00;63986.66;5022545;28;20030;-77
2024/02/20 08:55:48;;;;;;;38.75;7.53;;;8.10;99.90;;;-148.53;100.00;63986.66;5028257;28;20041;-77
2024/02/20 08:58:14;;;;;;;33.50;7.10;;;8.20;99.90;;;-148.53;100.00;63986.66;5037308;28;20080;-78
2024/02/20 09:00:39;;;;;;;32.80;7.05;;;8.20;99.90;;;-148.53;100.00;63986.66;5029219;28;20052;-78
2024/02/20 09:03:05;;;;;;;29.88;6.82;;;8.40;99.90;;;-148.53;100.00;63986.66;5013124;28;20073;-78
2024/02/20 09:05:33;;;;;;;32.22;6.45;;;8.40;99.90;;;-148.53;100.00;63986.66;5019812;28;20029;-78
2024/02/20 09:07:59;;;;;;;39.03;6.30;;;8.50;99.90;;;-148.53;100.00;63986.66;5019613;28;20037;-78
2024/02/20 09:10:24;;;;;;;36.42;7.47;;;8.60;99.90;;;-148.53;100.00;63986.66;5028060;28;20484;-79
2024/02/20 09:12:51;;;;;;;35.90;6.82;;;8.80;99.90;;;-148.53;100.00;63986.66;5017015;28;20033;-79
2024/02/20 09:15:16;;;;;;;27.83;5.82;;;8.90;99.90;;;-148.53;100.00;63986.66;5011637;28;20025;-78
2024/02/20 09:17:42;;;;;;;25.67;5.70;;;8.90;99.90;;;-148.53;100.00;63986.66;5012920;28;20050;-78
2024/02/20 09:20:10;;;;;;;28.02;5.43;;;8.90;99.90;;;-148.53;100.00;63986.66;5015526;28;20025;-77
2024/02/20 09:22:38;;;;;;;29.80;6.18;;;9.00;99.90;;;-148.53;100.00;63986.66;5015372;28;20030;-77
2024/02/20 09:25:08;;;;;;;33.00;6.55;;;9.20;99.90;;;-148.53;100.00;63986.66;5014888;28;20439;-77
2024/02/20 09:27:37;;;;;;;32.25;6.10;;;9.40;99.90;;;-148.53;100.00;63986.66;5028935;28;20041;-78
2024/02/20 09:30:07;;;;;;;30.48;5.10;;;9.40;99.90;;;-148.53;100.00;63986.66;5015549;28;20065;-77
2024/02/20 09:32:32;;;;;;;24.13;5.03;;;9.60;99.90;;;-148.53;100.00;63986.66;5029164;28;20091;-77
2024/02/20 09:34:58;;;;;;;26.30;5.05;;;9.60;99.90;;;-148.53;100.00;63986.66;5020120;28;20041;-77
2024/02/20 09:37:24;;;;;;;31.30;5.25;;;9.70;99.90;;;-148.53;100.00;63986.66;5022475;28;20045;-78
2024/02/20 09:39:49;;;;;;;32.22;5.45;;;9.80;99.90;;;-148.53;100.00;63986.66;5019444;28;20073;-77
2024/02/20 09:42:24;;;;;;;22.42;5.20;;;9.90;99.90;;;-148.53;100.00;63986.66;5025573;28;20386;-79
2024/02/20 09:44:54;;;;;;;28.70;5.25;;;9.90;99.90;;;-148.53;100.00;63986.66;5025309;28;20061;-77
2024/02/20 09:47:22;;;;;;;22.58;4.45;;;9.90;99.90;;;-148.53;100.00;63986.66;5027372;28;20037;-78
2024/02/20 09:49:53;;;;;;;32.42;5.22;;;10.00;99.90;;;-148.53;100.00;63986.66;5029792;28;20064;-78
2024/02/20 09:52:20;;;;;;;24.58;4.47;;;9.90;99.90;;;-148.53;100.00;63986.66;5016653;28;20044;-77
2024/02/20 09:54:48;;;;;;;22.08;4.47;;;10.10;99.90;;;-148.53;100.00;63986.66;5020039;28;20041;-80
2024/02/20 09:57:15;;;;;;;26.80;4.20;;;10.30;99.90;;;-148.53;100.00;63986.66;5016671;28;20038;-78